createdAt,value
2022-11-01T00:00:41.381Z,20.25
2022-11-01T00:01:41.479Z,19.93
2022-11-01T00:02:41.428Z,20.14
2022-11-01T00:03:41.343Z,19.93
2022-11-01T00:04:41.328Z,20.20
2022-11-01T00:05:41.309Z,20.30
2022-11-01T00:06:41.302Z,20.20
2022-11-01T00:07:41.281Z,20.20
2022-11-01T00:08:41.277Z,20.52
2022-11-01T00:09:41.259Z,20.14
2022-11-01T00:10:41.270Z,20.20
2022-11-01T00:11:41.231Z,20.14
2022-11-01T00:12:41.222Z,19.77
2022-11-01T00:13:41.201Z,20.36
2022-11-01T00:14:41.195Z,19.77
2022-11-01T00:15:41.177Z,20.14
2022-11-01T00:16:41.169Z,20.09
2022-11-01T00:17:41.148Z,20.03
2022-11-01T00:18:41.140Z,20.20
2022-11-01T00:19:41.119Z,20.46
2022-11-01T00:20:41.110Z,19.77
2022-11-01T00:21:41.101Z,19.82
2022-11-01T00:22:41.083Z,20.30
2022-11-01T00:23:41.071Z,20.30
2022-11-01T00:24:41.062Z,19.71
2022-11-01T00:25:41.045Z,19.77
2022-11-01T00:26:41.098Z,20.20
2022-11-01T00:27:41.017Z,20.03
2022-11-01T00:28:41.004Z,19.93
2022-11-01T00:29:40.987Z,20.25
2022-11-01T00:30:40.974Z,20.25
2022-11-01T00:31:40.966Z,20.14
2022-11-01T00:32:41.194Z,19.87
2022-11-01T00:33:40.940Z,20.20
2022-11-01T00:34:40.924Z,20.20
2022-11-01T00:35:40.907Z,20.20
2022-11-01T00:36:40.895Z,20.14
2022-11-01T00:37:40.886Z,19.77
2022-11-01T00:38:40.865Z,20.14
2022-11-01T00:39:40.861Z,20.14
2022-11-01T00:40:40.848Z,19.77
2022-11-01T00:41:40.826Z,20.14
2022-11-01T00:42:40.832Z,19.77
2022-11-01T00:43:40.802Z,19.66
2022-11-01T00:44:40.786Z,20.20
2022-11-01T00:45:40.775Z,20.14
2022-11-01T00:46:40.758Z,19.77
2022-11-01T00:47:40.745Z,20.36
2022-11-01T00:48:40.739Z,20.30
2022-11-01T00:49:40.721Z,20.09
2022-11-01T00:50:40.705Z,20.03
2022-11-01T00:51:40.699Z,20.20
2022-11-01T00:52:40.678Z,19.98
2022-11-01T00:53:40.666Z,19.66
2022-11-01T00:54:40.651Z,19.77
2022-11-01T00:55:40.638Z,19.93
2022-11-01T00:56:40.621Z,20.20
2022-11-01T00:57:40.613Z,19.82
2022-11-01T00:58:40.624Z,20.30
2022-11-01T00:59:41.090Z,20.14
2022-11-01T01:00:40.567Z,19.87
2022-11-01T01:01:40.792Z,20.20
2022-11-01T01:02:40.546Z,20.20
2022-11-01T01:03:40.530Z,20.30
2022-11-01T01:04:40.514Z,20.36
2022-11-01T01:05:40.508Z,20.25
2022-11-01T01:06:40.486Z,20.20
2022-11-01T01:07:40.474Z,20.30
2022-11-01T01:08:40.462Z,20.09
2022-11-01T01:09:40.450Z,20.14
2022-11-01T01:10:40.435Z,19.77
2022-11-01T01:11:40.423Z,19.71
2022-11-01T01:12:40.404Z,20.25
2022-11-01T01:13:40.394Z,20.20
2022-11-01T01:14:40.408Z,20.20
2022-11-01T01:15:40.374Z,20.14
2022-11-01T01:17:40.343Z,19.71
2022-11-01T01:18:40.332Z,19.82
2022-11-01T01:19:40.321Z,20.20
2022-11-01T01:20:40.300Z,20.14
2022-11-01T01:21:40.291Z,19.77
2022-11-01T01:22:40.275Z,20.20
2022-11-01T01:23:40.260Z,20.30
2022-11-01T01:24:40.248Z,20.03
2022-11-01T01:25:40.235Z,19.87
2022-11-01T01:26:40.215Z,19.77
2022-11-01T01:27:40.206Z,20.20
2022-11-01T01:28:43.657Z,20.25
2022-11-01T01:29:40.179Z,19.98
2022-11-01T01:30:40.186Z,19.82
2022-11-01T01:31:40.155Z,20.20
2022-11-01T01:32:40.136Z,20.30
2022-11-01T01:33:40.131Z,20.14
2022-11-01T01:34:40.112Z,19.71
2022-11-01T01:35:40.105Z,20.20
2022-11-01T01:36:40.081Z,20.14
2022-11-01T01:37:40.077Z,20.14
2022-11-01T01:38:40.052Z,20.03
2022-11-01T01:39:40.046Z,19.77
2022-11-01T01:40:40.028Z,20.20
2022-11-01T01:41:40.022Z,20.14
2022-11-01T01:42:40.005Z,19.87
2022-11-01T01:43:39.994Z,20.36
2022-11-01T01:44:39.976Z,19.77
2022-11-01T01:45:39.966Z,19.77
2022-11-01T01:46:39.972Z,19.77
2022-11-01T01:47:39.976Z,20.20
2022-11-01T01:48:39.925Z,19.77
2022-11-01T01:49:42.512Z,19.71
2022-11-01T01:50:39.898Z,20.14
2022-11-01T01:51:39.885Z,19.77
2022-11-01T01:52:39.869Z,19.98
2022-11-01T01:53:39.860Z,20.20
2022-11-01T01:54:39.835Z,20.46
2022-11-01T01:55:39.830Z,19.66
2022-11-01T01:56:39.811Z,19.77
2022-11-01T01:57:39.804Z,19.77
2022-11-01T01:58:39.783Z,20.30
2022-11-01T01:59:39.773Z,19.77
2022-11-01T02:00:39.833Z,19.77
2022-11-01T02:01:39.875Z,20.14
2022-11-01T02:02:39.754Z,20.20
2022-11-01T02:03:39.726Z,20.14
2022-11-01T02:04:39.700Z,20.20
2022-11-01T02:05:39.693Z,19.71
2022-11-01T02:06:39.683Z,19.82
2022-11-01T02:07:39.664Z,20.30
2022-11-01T02:08:39.650Z,19.98
2022-11-01T02:09:39.637Z,20.20
2022-11-01T02:10:39.621Z,20.14
2022-11-01T02:11:39.612Z,20.14
2022-11-01T02:12:39.599Z,19.77
2022-11-01T02:13:39.588Z,20.14
2022-11-01T02:14:39.566Z,20.14
2022-11-01T02:15:39.563Z,20.14
2022-11-01T02:16:39.543Z,20.20
2022-11-01T02:17:39.535Z,19.98
2022-11-01T02:18:39.538Z,20.03
2022-11-01T02:19:39.505Z,20.14
2022-11-01T02:20:39.484Z,20.09
2022-11-01T02:21:39.482Z,20.30
2022-11-01T02:22:39.509Z,20.14
2022-11-01T02:23:39.454Z,20.30
2022-11-01T02:24:39.432Z,20.20
2022-11-01T02:25:39.423Z,20.09
2022-11-01T02:26:39.409Z,19.87
2022-11-01T02:27:39.391Z,20.30
2022-11-01T02:28:39.383Z,20.25
2022-11-01T02:29:39.375Z,20.20
2022-11-01T02:30:39.351Z,20.14
2022-11-01T02:31:39.349Z,19.77
2022-11-01T02:32:39.330Z,20.09
2022-11-01T02:33:39.321Z,19.93
2022-11-01T02:34:39.324Z,19.71
2022-11-01T02:35:39.287Z,19.93
2022-11-01T02:36:39.273Z,20.14
2022-11-01T02:37:39.266Z,19.82
2022-11-01T02:38:39.247Z,19.82
2022-11-01T02:39:39.231Z,20.14
2022-11-01T02:40:39.215Z,19.98
2022-11-01T02:41:39.207Z,20.14
2022-11-01T02:42:39.187Z,20.14
2022-11-01T02:43:39.178Z,20.20
2022-11-01T02:44:39.162Z,20.20
2022-11-01T02:45:39.155Z,20.14
2022-11-01T02:46:39.134Z,20.14
2022-11-01T02:47:39.129Z,20.25
2022-11-01T02:48:39.112Z,20.20
2022-11-01T02:49:39.099Z,19.82
2022-11-01T02:50:39.106Z,19.77
2022-11-01T02:51:39.076Z,19.87
2022-11-01T02:52:39.052Z,20.30
2022-11-01T02:53:39.047Z,19.77
2022-11-01T02:54:39.033Z,20.20
2022-11-01T02:55:39.081Z,20.25
2022-11-01T02:56:39.003Z,19.77
2022-11-01T02:57:38.990Z,20.20
2022-11-01T02:58:38.972Z,20.14
2022-11-01T02:59:38.966Z,20.14
2022-11-01T03:00:38.948Z,20.03
2022-11-01T03:01:39.112Z,19.82
2022-11-01T03:02:38.919Z,19.77
2022-11-01T03:03:38.910Z,19.77
2022-11-01T03:04:38.895Z,20.20
2022-11-01T03:05:38.888Z,19.87
2022-11-01T03:06:38.891Z,20.30
2022-11-01T03:07:38.856Z,20.30
2022-11-01T03:08:38.836Z,19.71
2022-11-01T03:09:38.829Z,20.14
2022-11-01T03:10:38.867Z,19.82
2022-11-01T03:11:38.804Z,20.20
2022-11-01T03:12:38.786Z,19.66
2022-11-01T03:13:38.775Z,19.82
2022-11-01T03:14:38.759Z,20.14
2022-11-01T03:15:38.743Z,19.77
2022-11-01T03:16:38.730Z,19.82
2022-11-01T03:17:38.733Z,20.03
2022-11-01T03:18:38.708Z,19.66
2022-11-01T03:19:38.708Z,20.20
2022-11-01T03:20:38.675Z,19.82
2022-11-01T03:21:38.666Z,20.14
2022-11-01T03:22:38.670Z,19.87
2022-11-01T03:23:38.646Z,20.41
2022-11-01T03:24:38.624Z,20.14
2022-11-01T03:25:38.612Z,19.71
2022-11-01T03:26:38.595Z,19.77
2022-11-01T03:27:38.593Z,20.20
2022-11-01T03:28:38.572Z,19.77
2022-11-01T03:29:38.561Z,20.20
2022-11-01T03:30:38.541Z,20.25
2022-11-01T03:31:38.533Z,20.20
2022-11-01T03:32:38.515Z,19.77
2022-11-01T03:33:38.505Z,20.30
2022-11-01T03:34:38.493Z,20.30
2022-11-01T03:35:38.481Z,19.77
2022-11-01T03:36:38.470Z,19.93
2022-11-01T03:37:38.454Z,19.87
2022-11-01T03:38:38.662Z,19.77
2022-11-01T03:39:38.426Z,19.77
2022-11-01T03:40:38.406Z,19.77
2022-11-01T03:41:38.401Z,19.77
2022-11-01T03:42:38.384Z,19.66
2022-11-01T03:43:38.374Z,20.30
2022-11-01T03:44:38.353Z,20.20
2022-11-01T03:45:38.350Z,19.93
2022-11-01T03:46:38.326Z,19.71
2022-11-01T03:47:38.318Z,20.36
2022-11-01T03:48:38.304Z,20.20
2022-11-01T03:49:38.300Z,20.30
2022-11-01T03:50:38.277Z,20.03
2022-11-01T03:51:38.271Z,19.60
2022-11-01T03:52:38.253Z,19.82
2022-11-01T03:53:38.240Z,20.41
2022-11-01T03:54:38.249Z,20.14
2022-11-01T03:55:38.209Z,19.98
2022-11-01T03:56:38.196Z,19.82
2022-11-01T03:57:38.189Z,19.71
2022-11-01T03:58:38.166Z,19.77
2022-11-01T03:59:38.156Z,20.14
2022-11-01T04:00:38.145Z,20.20
2022-11-01T04:01:38.333Z,19.82
2022-11-01T04:02:38.117Z,19.82
2022-11-01T04:03:38.105Z,20.20
2022-11-01T04:04:38.096Z,19.77
2022-11-01T04:05:38.079Z,20.09
2022-11-01T04:06:38.060Z,19.77
2022-11-01T04:07:38.050Z,19.82
2022-11-01T04:08:38.036Z,20.20
2022-11-01T04:09:38.018Z,19.77
2022-11-01T04:10:38.037Z,20.14
2022-11-01T04:11:37.991Z,20.14
2022-11-01T04:12:37.980Z,19.82
2022-11-01T04:13:37.966Z,19.66
2022-11-01T04:14:37.960Z,20.20
2022-11-01T04:15:37.943Z,20.20
2022-11-01T04:16:37.937Z,20.20
2022-11-01T04:17:37.915Z,20.30
2022-11-01T04:18:37.906Z,20.14
2022-11-01T04:19:37.887Z,20.14
2022-11-01T04:20:37.872Z,19.82
2022-11-01T04:21:37.857Z,19.98
2022-11-01T04:22:37.856Z,20.20
2022-11-01T04:23:37.834Z,19.71
2022-11-01T04:24:37.821Z,19.77
2022-11-01T04:25:37.802Z,19.82
2022-11-01T04:26:37.822Z,19.93
2022-11-01T04:27:37.782Z,19.77
2022-11-01T04:28:37.776Z,20.09
2022-11-01T04:29:37.760Z,19.82
2022-11-01T04:30:37.746Z,19.87
2022-11-01T04:31:37.727Z,20.30
2022-11-01T04:32:37.720Z,19.77
2022-11-01T04:33:37.703Z,19.77
2022-11-01T04:34:37.691Z,19.77
2022-11-01T04:35:37.670Z,20.20
2022-11-01T04:36:37.661Z,19.87
2022-11-01T04:37:37.644Z,20.20
2022-11-01T04:38:37.635Z,19.77
2022-11-01T04:39:37.617Z,20.14
2022-11-01T04:40:37.659Z,19.87
2022-11-01T04:41:37.589Z,20.25
2022-11-01T04:42:37.600Z,20.25
2022-11-01T04:43:37.567Z,20.14
2022-11-01T04:44:37.560Z,19.98
2022-11-01T04:45:37.546Z,19.71
2022-11-01T04:46:37.530Z,20.20
2022-11-01T04:47:37.517Z,19.82
2022-11-01T04:48:37.501Z,20.30
2022-11-01T04:49:37.492Z,19.82
2022-11-01T04:50:37.525Z,20.20
2022-11-01T04:52:37.445Z,19.60
2022-11-01T04:53:37.435Z,19.82
2022-11-01T04:54:37.416Z,19.77
2022-11-01T04:55:37.414Z,19.93
2022-11-01T04:56:37.390Z,19.77
2022-11-01T04:57:37.378Z,19.87
2022-11-01T04:58:42.957Z,19.77
2022-11-01T04:59:38.376Z,19.93
2022-11-01T05:00:37.389Z,20.36
2022-11-01T05:01:37.409Z,19.77
2022-11-01T05:02:37.313Z,19.77
2022-11-01T05:03:37.306Z,20.14
2022-11-01T05:04:37.287Z,20.14
2022-11-01T05:05:37.275Z,19.93
2022-11-01T05:06:37.261Z,19.82
2022-11-01T05:07:37.244Z,20.14
2022-11-01T05:08:37.236Z,19.87
2022-11-01T05:09:37.219Z,20.14
2022-11-01T05:10:37.201Z,19.66
2022-11-01T05:11:37.191Z,20.03
2022-11-01T05:12:37.175Z,19.44
2022-11-01T05:13:37.174Z,19.77
2022-11-01T05:14:37.171Z,19.77
2022-11-01T05:15:39.967Z,20.20
2022-11-01T05:16:38.151Z,19.77
2022-11-01T05:17:37.118Z,19.77
2022-11-01T05:18:37.101Z,19.82
2022-11-01T05:19:37.086Z,19.77
2022-11-01T05:20:37.069Z,20.14
2022-11-01T05:21:37.061Z,19.93
2022-11-01T05:22:37.042Z,19.82
2022-11-01T05:23:37.034Z,19.87
2022-11-01T05:24:37.072Z,19.77
2022-11-01T05:25:38.307Z,19.77
2022-11-01T05:26:36.992Z,19.60
2022-11-01T05:27:36.996Z,19.77
2022-11-01T05:28:36.965Z,19.77
2022-11-01T05:29:36.954Z,19.77
2022-11-01T05:30:36.960Z,19.77
2022-11-01T05:31:36.926Z,19.82
2022-11-01T05:32:36.907Z,19.98
2022-11-01T05:33:36.897Z,19.98
2022-11-01T05:34:36.882Z,19.77
2022-11-01T05:35:36.871Z,20.09
2022-11-01T05:36:36.857Z,19.66
2022-11-01T05:37:36.844Z,19.93
2022-11-01T05:38:36.827Z,20.25
2022-11-01T05:39:36.819Z,19.82
2022-11-01T05:40:36.807Z,19.66
2022-11-01T05:41:36.793Z,19.82
2022-11-01T05:42:36.781Z,19.77
2022-11-01T05:43:36.969Z,20.20
2022-11-01T05:44:36.752Z,19.77
2022-11-01T05:45:36.739Z,19.71
2022-11-01T05:46:36.752Z,19.77
2022-11-01T05:47:36.710Z,20.14
2022-11-01T05:48:36.692Z,19.82
2022-11-01T05:49:36.689Z,19.82
2022-11-01T05:50:36.669Z,20.20
2022-11-01T05:51:36.660Z,19.77
2022-11-01T05:52:36.647Z,19.87
2022-11-01T05:53:36.636Z,19.71
2022-11-01T05:54:36.615Z,20.25
2022-11-01T05:55:36.631Z,20.14
2022-11-01T05:56:36.585Z,20.14
2022-11-01T05:57:36.618Z,19.98
2022-11-01T05:58:36.562Z,19.93
2022-11-01T05:59:36.547Z,19.82
2022-11-01T06:00:36.534Z,19.77
2022-11-01T06:01:36.614Z,19.50
2022-11-01T06:02:36.621Z,19.93
2022-11-01T06:03:36.503Z,19.77
2022-11-01T06:04:36.483Z,19.82
2022-11-01T06:05:36.474Z,19.82
2022-11-01T06:06:36.455Z,19.82
2022-11-01T06:07:36.445Z,19.71
2022-11-01T06:08:36.429Z,19.82
2022-11-01T06:09:36.417Z,19.87
2022-11-01T06:10:36.400Z,19.77
2022-11-01T06:11:41.370Z,20.14
2022-11-01T06:12:36.369Z,19.77
2022-11-01T06:13:36.361Z,20.14
2022-11-01T06:14:36.348Z,20.20
2022-11-01T06:15:38.826Z,19.77
2022-11-01T06:16:36.315Z,19.82
2022-11-01T06:17:36.308Z,19.60
2022-11-01T06:18:36.312Z,19.82
2022-11-01T06:19:36.283Z,19.93
2022-11-01T06:20:36.267Z,19.60
2022-11-01T06:21:36.259Z,19.77
2022-11-01T06:22:36.243Z,20.30
2022-11-01T06:23:36.229Z,20.14
2022-11-01T06:24:36.210Z,19.77
2022-11-01T06:25:36.220Z,19.82
2022-11-01T06:26:36.181Z,19.77
2022-11-01T06:27:36.177Z,19.71
2022-11-01T06:28:36.162Z,19.60
2022-11-01T06:29:36.153Z,19.77
2022-11-01T06:30:36.132Z,19.77
2022-11-01T06:31:36.123Z,19.87
2022-11-01T06:32:36.107Z,19.77
2022-11-01T06:33:36.097Z,19.82
2022-11-01T06:34:39.452Z,19.71
2022-11-01T06:35:36.067Z,19.71
2022-11-01T06:36:36.049Z,19.71
2022-11-01T06:37:36.039Z,19.77
2022-11-01T06:38:36.025Z,19.93
2022-11-01T06:39:36.014Z,19.77
2022-11-01T06:40:35.995Z,19.82
2022-11-01T06:41:35.985Z,19.77
2022-11-01T06:42:35.965Z,20.20
2022-11-01T06:43:35.961Z,20.14
2022-11-01T06:44:35.942Z,20.14
2022-11-01T06:45:35.936Z,19.98
2022-11-01T06:46:35.917Z,19.77
2022-11-01T06:47:35.908Z,19.77
2022-11-01T06:48:35.895Z,19.60
2022-11-01T06:49:35.881Z,19.66
2022-11-01T06:50:35.888Z,19.82
2022-11-01T06:51:35.855Z,19.82
2022-11-01T06:52:35.831Z,19.87
2022-11-01T06:53:35.828Z,19.71
2022-11-01T06:54:35.807Z,19.82
2022-11-01T06:55:35.793Z,19.77
2022-11-01T06:56:35.778Z,19.82
2022-11-01T06:57:35.768Z,19.77
2022-11-01T06:58:35.755Z,19.77
2022-11-01T06:59:35.739Z,19.82
2022-11-01T07:00:35.724Z,19.66
2022-11-01T07:01:35.886Z,19.77
2022-11-01T07:02:35.861Z,19.77
2022-11-01T07:03:35.686Z,19.87
2022-11-01T07:04:35.670Z,19.77
2022-11-01T07:05:37.269Z,19.71
2022-11-01T07:06:35.670Z,19.66
2022-11-01T07:07:35.633Z,19.77
2022-11-01T07:08:35.617Z,19.77
2022-11-01T07:09:35.609Z,19.77
2022-11-01T07:10:35.594Z,19.77
2022-11-01T07:11:35.586Z,19.77
2022-11-01T07:12:35.571Z,20.03
2022-11-01T07:13:35.559Z,19.71
2022-11-01T07:14:35.537Z,19.77
2022-11-01T07:15:35.535Z,19.77
2022-11-01T07:16:35.518Z,19.77
2022-11-01T07:17:35.527Z,19.60
2022-11-01T07:18:35.483Z,19.66
2022-11-01T07:19:35.473Z,19.77
2022-11-01T07:20:35.494Z,19.82
2022-11-01T07:21:35.448Z,20.20
2022-11-01T07:22:35.457Z,19.82
2022-11-01T07:23:35.422Z,19.71
2022-11-01T07:24:35.405Z,19.71
2022-11-01T07:25:35.393Z,19.93
2022-11-01T07:26:35.380Z,19.77
2022-11-01T07:27:35.370Z,19.66
2022-11-01T07:28:35.353Z,19.98
2022-11-01T07:29:35.346Z,19.82
2022-11-01T07:30:35.327Z,19.77
2022-11-01T07:31:35.317Z,19.77
2022-11-01T07:32:39.755Z,19.82
2022-11-01T07:33:35.292Z,19.77
2022-11-01T07:34:35.274Z,19.77
2022-11-01T07:35:35.262Z,19.77
2022-11-01T07:36:35.246Z,19.82
2022-11-01T07:37:35.237Z,19.71
2022-11-01T07:38:35.240Z,19.77
2022-11-01T07:39:35.211Z,19.87
2022-11-01T07:40:35.197Z,19.71
2022-11-01T07:41:35.188Z,19.77
2022-11-01T07:42:35.170Z,19.77
2022-11-01T07:43:35.162Z,19.82
2022-11-01T07:44:35.150Z,19.77
2022-11-01T07:45:35.142Z,19.87
2022-11-01T07:46:35.112Z,19.82
2022-11-01T07:47:35.107Z,19.98
2022-11-01T07:48:35.090Z,19.77
2022-11-01T07:49:35.076Z,19.77
2022-11-01T07:50:35.069Z,19.77
2022-11-01T07:51:35.048Z,19.93
2022-11-01T07:52:35.037Z,19.77
2022-11-01T07:53:35.027Z,20.14
2022-11-01T07:54:35.026Z,19.77
2022-11-01T07:55:34.999Z,19.87
2022-11-01T07:56:34.982Z,19.77
2022-11-01T07:57:34.973Z,19.87
2022-11-01T07:58:34.951Z,19.87
2022-11-01T07:59:34.944Z,19.93
2022-11-01T08:01:35.093Z,19.71
2022-11-01T08:02:34.966Z,19.87
2022-11-01T08:03:34.887Z,19.71
2022-11-01T08:04:34.886Z,19.77
2022-11-01T08:05:34.873Z,19.55
2022-11-01T08:06:34.845Z,19.87
2022-11-01T08:07:34.838Z,19.71
2022-11-01T08:08:34.819Z,19.82
2022-11-01T08:09:34.812Z,19.87
2022-11-01T08:10:34.810Z,19.82
2022-11-01T08:11:34.784Z,19.82
2022-11-01T08:12:34.764Z,19.82
2022-11-01T08:13:34.757Z,19.50
2022-11-01T08:14:34.733Z,19.98
2022-11-01T08:15:34.721Z,20.03
2022-11-01T08:16:34.709Z,19.77
2022-11-01T08:17:34.703Z,19.77
2022-11-01T08:18:34.690Z,19.87
2022-11-01T08:19:34.671Z,19.77
2022-11-01T08:20:34.661Z,19.93
2022-11-01T08:21:34.646Z,19.77
2022-11-01T08:22:34.718Z,19.77
2022-11-01T08:23:34.622Z,19.77
2022-11-01T08:24:34.599Z,19.77
2022-11-01T08:25:34.601Z,19.71
2022-11-01T08:26:34.598Z,19.98
2022-11-01T08:27:35.457Z,19.71
2022-11-01T08:28:34.551Z,19.87
2022-11-01T08:29:34.540Z,19.82
2022-11-01T08:30:34.528Z,19.77
2022-11-01T08:31:34.519Z,19.77
2022-11-01T08:32:34.496Z,19.82
2022-11-01T08:33:34.486Z,19.77
2022-11-01T08:34:34.466Z,19.77
2022-11-01T08:35:34.473Z,19.82
2022-11-01T08:36:34.468Z,19.77
2022-11-01T08:37:34.438Z,19.77
2022-11-01T08:38:34.471Z,19.77
2022-11-01T08:39:34.430Z,19.71
2022-11-01T08:40:34.401Z,19.77
2022-11-01T08:41:37.241Z,19.71
2022-11-01T08:42:34.386Z,19.77
2022-11-01T08:43:37.998Z,19.77
2022-11-01T08:44:35.361Z,19.60
2022-11-01T08:45:34.328Z,19.98
2022-11-01T08:46:34.362Z,19.77
2022-11-01T08:47:34.301Z,19.93
2022-11-01T08:48:34.281Z,19.82
2022-11-01T08:49:34.270Z,19.82
2022-11-01T08:50:34.279Z,19.87
2022-11-01T08:51:34.451Z,19.71
2022-11-01T08:52:34.232Z,19.77
2022-11-01T08:53:34.220Z,19.77
2022-11-01T08:54:34.268Z,19.98
2022-11-01T08:55:37.658Z,19.77
2022-11-01T08:56:34.180Z,19.87
2022-11-01T08:57:34.173Z,19.93
2022-11-01T08:58:34.174Z,19.77
2022-11-01T08:59:34.139Z,19.87
2022-11-01T09:00:34.123Z,19.77
2022-11-01T09:01:34.309Z,19.77
2022-11-01T09:02:34.227Z,19.77
2022-11-01T09:03:34.081Z,19.82
2022-11-01T09:04:34.071Z,19.66
2022-11-01T09:05:34.056Z,19.77
2022-11-01T09:06:36.381Z,19.82
2022-11-01T09:07:34.034Z,19.77
2022-11-01T09:08:34.024Z,19.87
2022-11-01T09:09:34.006Z,19.60
2022-11-01T09:10:33.998Z,19.71
2022-11-01T09:11:33.981Z,19.77
2022-11-01T09:12:34.037Z,19.71
2022-11-01T09:13:33.956Z,19.71
2022-11-01T09:14:33.969Z,19.60
2022-11-01T09:15:33.924Z,19.55
2022-11-01T09:16:33.915Z,19.60
2022-11-01T09:17:33.935Z,19.82
2022-11-01T09:18:33.886Z,19.60
2022-11-01T09:19:33.936Z,19.71
2022-11-01T09:20:33.859Z,19.55
2022-11-01T09:21:33.844Z,19.82
2022-11-01T09:22:33.834Z,19.60
2022-11-01T09:23:33.823Z,19.55
2022-11-01T09:24:33.826Z,19.60
2022-11-01T09:25:33.808Z,19.60
2022-11-01T09:26:33.791Z,19.60
2022-11-01T09:27:33.766Z,19.55
2022-11-01T09:28:34.151Z,19.55
2022-11-01T09:30:33.756Z,19.77
2022-11-01T09:31:33.711Z,19.87
2022-11-01T09:32:33.701Z,19.66
2022-11-01T09:33:33.682Z,20.03
2022-11-01T09:34:33.672Z,19.71
2022-11-01T09:35:33.657Z,19.60
2022-11-01T09:36:33.648Z,19.55
2022-11-01T09:37:33.630Z,19.55
2022-11-01T09:38:33.626Z,19.71
2022-11-01T09:39:33.604Z,19.55
2022-11-01T09:40:33.595Z,19.55
2022-11-01T09:41:33.575Z,19.71
2022-11-01T09:42:33.569Z,19.60
2022-11-01T09:43:33.550Z,19.60
2022-11-01T09:44:33.539Z,19.66
2022-11-01T09:45:33.525Z,19.82
2022-11-01T09:46:33.552Z,19.60
2022-11-01T09:47:33.503Z,19.55
2022-11-01T09:48:33.486Z,19.60
2022-11-01T09:49:33.472Z,19.60
2022-11-01T09:50:33.468Z,19.55
2022-11-01T09:51:33.450Z,19.60
2022-11-01T09:52:33.439Z,19.60
2022-11-01T09:53:33.425Z,19.60
2022-11-01T09:54:33.405Z,19.55
2022-11-01T09:55:33.395Z,19.60
2022-11-01T09:56:33.487Z,19.55
2022-11-01T09:57:33.376Z,19.12
2022-11-01T09:58:33.353Z,19.55
2022-11-01T09:59:33.336Z,19.17
2022-11-01T10:00:33.326Z,19.28
2022-11-01T10:01:33.382Z,19.55
2022-11-01T10:02:33.328Z,19.66
2022-11-01T10:03:33.285Z,19.17
2022-11-01T10:04:33.275Z,19.17
2022-11-01T10:05:33.256Z,19.23
2022-11-01T10:06:33.250Z,19.23
2022-11-01T10:07:33.244Z,19.28
2022-11-01T10:08:33.237Z,19.17
2022-11-01T10:09:33.210Z,19.60
2022-11-01T10:10:34.244Z,19.28
2022-11-01T10:11:33.178Z,19.17
2022-11-01T10:12:33.167Z,19.07
2022-11-01T10:13:33.152Z,19.17
2022-11-01T10:14:33.167Z,19.12
2022-11-01T10:15:33.126Z,19.23
2022-11-01T10:16:33.114Z,19.17
2022-11-01T10:17:33.099Z,19.23
2022-11-01T10:18:33.127Z,19.23
2022-11-01T10:19:33.076Z,19.17
2022-11-01T10:20:33.064Z,18.96
2022-11-01T10:21:33.067Z,19.17
2022-11-01T10:22:33.041Z,19.23
2022-11-01T10:23:33.026Z,19.17
2022-11-01T10:24:33.013Z,19.55
2022-11-01T10:25:32.995Z,19.23
2022-11-01T10:26:32.988Z,19.28
2022-11-01T10:27:36.275Z,19.23
2022-11-01T10:28:32.957Z,19.23
2022-11-01T10:29:32.939Z,19.44
2022-11-01T10:30:32.931Z,19.17
2022-11-01T10:31:32.914Z,19.23
2022-11-01T10:32:32.905Z,19.23
2022-11-01T10:33:32.893Z,19.12
2022-11-01T10:34:36.166Z,19.23
2022-11-01T10:35:32.866Z,19.28
2022-11-01T10:36:32.942Z,19.34
2022-11-01T10:37:32.838Z,19.23
2022-11-01T10:38:54.146Z,19.28
2022-11-01T10:39:57.855Z,19.23
2022-11-01T10:40:33.820Z,19.12
2022-11-01T10:41:32.789Z,19.28
2022-11-01T10:42:32.783Z,18.96
2022-11-01T10:43:32.760Z,19.17
2022-11-01T10:44:32.748Z,19.23
2022-11-01T10:45:32.734Z,19.17
2022-11-01T10:46:32.724Z,19.34
2022-11-01T10:47:32.704Z,19.23
2022-11-01T10:48:32.695Z,19.23
2022-11-01T10:50:00.144Z,19.28
2022-11-01T10:50:33.727Z,19.01
2022-11-01T10:51:32.654Z,19.44
2022-11-01T10:52:32.644Z,19.17
2022-11-01T10:53:32.637Z,19.23
2022-11-01T10:54:32.623Z,19.17
2022-11-01T10:55:32.610Z,19.34
2022-11-01T10:56:32.598Z,19.01
2022-11-01T10:57:32.582Z,19.01
2022-11-01T10:58:32.564Z,19.01
2022-11-01T10:59:32.553Z,19.23
2022-11-01T11:00:32.543Z,19.01
2022-11-01T11:01:33.022Z,19.01
2022-11-01T11:02:32.617Z,18.96
2022-11-01T11:03:32.497Z,19.12
2022-11-01T11:04:32.502Z,19.01
2022-11-01T11:05:32.475Z,18.96
2022-11-01T11:06:32.490Z,19.01
2022-11-01T11:07:32.443Z,19.01
2022-11-01T11:08:32.433Z,19.01
2022-11-01T11:09:32.419Z,19.01
2022-11-01T11:10:32.413Z,18.96
2022-11-01T11:11:32.390Z,19.01
2022-11-01T11:12:32.394Z,19.12
2022-11-01T11:13:32.366Z,19.12
2022-11-01T11:14:32.354Z,19.17
2022-11-01T11:15:35.481Z,18.96
2022-11-01T11:16:32.337Z,19.07
2022-11-01T11:17:32.316Z,18.96
2022-11-01T11:18:32.306Z,19.01
2022-11-01T11:19:32.292Z,18.96
2022-11-01T11:20:32.278Z,19.07
2022-11-01T11:21:32.297Z,19.01
2022-11-01T11:22:32.358Z,18.96
2022-11-01T11:23:32.233Z,19.12
2022-11-01T11:24:32.222Z,18.85
2022-11-01T11:25:32.207Z,19.01
2022-11-01T11:26:37.514Z,18.91
2022-11-01T11:27:33.206Z,19.01
2022-11-01T11:28:32.169Z,19.07
2022-11-01T11:29:32.155Z,19.01
2022-11-01T11:30:32.143Z,19.01
2022-11-01T11:31:32.131Z,19.01
2022-11-01T11:32:32.134Z,18.85
2022-11-01T11:33:32.107Z,18.96
2022-11-01T11:34:32.100Z,19.01
2022-11-01T11:35:32.078Z,18.85
2022-11-01T11:36:32.068Z,19.07
2022-11-01T11:37:32.054Z,19.07
2022-11-01T11:38:32.064Z,18.75
2022-11-01T11:39:32.033Z,19.07
2022-11-01T11:40:32.012Z,19.12
2022-11-01T11:41:31.995Z,18.91
2022-11-01T11:42:31.985Z,19.12
2022-11-01T11:43:31.971Z,18.75
2022-11-01T11:44:31.959Z,18.80
2022-11-01T11:45:31.946Z,19.01
2022-11-01T11:46:31.933Z,18.75
2022-11-01T11:47:31.913Z,18.85
2022-11-01T11:48:31.903Z,18.80
2022-11-01T11:49:31.888Z,18.80
2022-11-01T11:50:31.877Z,19.01
2022-11-01T11:51:31.859Z,18.85
2022-11-01T11:52:36.860Z,18.85
2022-11-01T11:53:32.863Z,18.80
2022-11-01T11:54:31.847Z,18.85
2022-11-01T11:55:31.815Z,18.69
2022-11-01T11:56:31.824Z,18.58
2022-11-01T11:57:31.784Z,18.80
2022-11-01T11:58:31.774Z,18.80
2022-11-01T11:59:31.758Z,18.85
2022-11-01T12:00:31.749Z,18.96
2022-11-01T12:01:31.854Z,18.69
2022-11-01T12:02:31.828Z,18.80
2022-11-01T12:03:31.703Z,18.85
2022-11-01T12:04:31.691Z,18.80
2022-11-01T12:05:31.678Z,18.80
2022-11-01T12:06:31.667Z,18.75
2022-11-01T12:07:31.652Z,18.96
2022-11-01T12:08:31.636Z,18.80
2022-11-01T12:09:31.624Z,18.85
2022-11-01T12:10:31.639Z,18.80
2022-11-01T12:11:31.601Z,18.80
2022-11-01T12:12:31.589Z,18.85
2022-11-01T12:13:31.574Z,18.80
2022-11-01T12:14:31.565Z,18.80
2022-11-01T12:15:34.382Z,18.80
2022-11-01T12:16:32.567Z,18.80
2022-11-01T12:17:31.531Z,18.75
2022-11-01T12:18:31.515Z,18.80
2022-11-01T12:19:31.500Z,18.80
2022-11-01T12:20:31.487Z,18.85
2022-11-01T12:21:31.471Z,18.80
2022-11-01T12:22:31.464Z,18.80
2022-11-01T12:23:31.444Z,18.85
2022-11-01T12:24:31.431Z,18.69
2022-11-01T12:25:31.417Z,18.91
2022-11-01T12:26:31.437Z,18.80
2022-11-01T12:27:31.386Z,18.42
2022-11-01T12:28:31.379Z,18.80
2022-11-01T12:29:31.360Z,18.80
2022-11-01T12:30:31.352Z,18.75
2022-11-01T12:31:31.808Z,18.42
2022-11-01T12:32:31.326Z,18.48
2022-11-01T12:33:31.309Z,18.48
2022-11-01T12:34:31.347Z,18.48
2022-11-01T12:35:31.286Z,18.53
2022-11-01T12:36:31.279Z,18.85
2022-11-01T12:37:31.263Z,18.42
2022-11-01T12:38:31.302Z,18.53
2022-11-01T12:39:31.237Z,18.42
2022-11-01T12:40:31.227Z,18.42
2022-11-01T12:41:31.211Z,18.48
2022-11-01T12:42:31.221Z,18.53
2022-11-01T12:43:31.182Z,18.48
2022-11-01T12:44:31.171Z,18.42
2022-11-01T12:45:31.157Z,18.37
2022-11-01T12:46:31.153Z,18.42
2022-11-01T12:47:31.138Z,18.37
2022-11-01T12:48:31.129Z,18.53
2022-11-01T12:49:31.109Z,18.48
2022-11-01T12:50:31.101Z,18.42
2022-11-01T12:51:31.078Z,18.42
2022-11-01T12:52:31.072Z,18.42
2022-11-01T12:53:31.053Z,18.42
2022-11-01T12:54:31.051Z,18.48
2022-11-01T12:55:31.028Z,18.42
2022-11-01T12:56:31.016Z,18.42